createdAt,value
2023-02-03T00:00:50.332Z,-0.33
2023-02-03T00:03:52.842Z,-0.32
2023-02-03T00:06:55.512Z,-0.34
2023-02-03T00:09:58.159Z,-0.38
2023-02-03T00:13:01.830Z,-0.37
2023-02-03T00:16:06.800Z,-0.39
2023-02-03T00:19:11.367Z,-0.45
2023-02-03T00:22:13.910Z,-0.51
2023-02-03T00:25:16.981Z,-0.51
2023-02-03T00:28:19.516Z,-0.58
2023-02-03T00:31:25.208Z,-0.54
2023-02-03T00:34:31.539Z,-0.60
2023-02-03T00:37:34.079Z,-0.61
2023-02-03T00:40:36.852Z,-0.64
2023-02-03T00:43:39.408Z,-0.63
2023-02-03T00:46:43.723Z,-0.66
2023-02-03T00:49:46.297Z,-0.68
2023-02-03T00:52:48.983Z,-0.76
2023-02-03T00:55:52.264Z,-0.77
2023-02-03T00:58:55.454Z,-0.81
2023-02-03T01:01:58.174Z,-0.89
2023-02-03T01:05:01.735Z,-0.89
2023-02-03T01:08:04.563Z,-0.90
2023-02-03T01:11:09.883Z,-0.88
2023-02-03T01:14:12.420Z,-0.93
2023-02-03T01:17:14.921Z,-0.97
2023-02-03T01:20:17.697Z,-0.95
2023-02-03T01:23:20.148Z,-0.94
2023-02-03T01:26:24.679Z,-0.95
2023-02-03T01:29:27.200Z,-0.96
2023-02-03T01:32:33.376Z,-0.97
2023-02-03T01:35:36.720Z,-1.01
2023-02-03T01:38:41.212Z,-1.11
2023-02-03T01:41:43.830Z,-1.01
2023-02-03T01:44:53.323Z,-0.99
2023-02-03T01:47:58.705Z,-1.03
2023-02-03T01:51:03.026Z,-1.06
2023-02-03T01:54:08.042Z,-1.08
2023-02-03T01:57:31.969Z,-1.10
2023-02-03T02:00:34.683Z,-1.07
2023-02-03T02:03:43.090Z,-1.07
2023-02-03T02:06:48.312Z,-1.06
2023-02-03T02:09:52.566Z,-1.12
2023-02-03T02:12:59.382Z,-1.14
2023-02-03T02:16:11.004Z,-1.17
2023-02-03T02:19:33.100Z,-1.23
2023-02-03T02:23:00.943Z,-1.17
2023-02-03T02:26:49.486Z,-1.26
2023-02-03T02:30:05.816Z,-1.34
2023-02-03T02:33:19.670Z,-1.40
2023-02-03T02:36:58.953Z,-1.49
2023-02-03T02:40:33.005Z,-1.48
2023-02-03T02:43:47.180Z,-1.55
2023-02-03T02:46:54.052Z,-1.54
2023-02-03T02:50:12.583Z,-1.52
2023-02-03T02:53:18.208Z,-1.54
2023-02-03T02:56:22.317Z,-1.63
2023-02-03T02:59:28.197Z,-1.66
2023-02-03T03:02:35.408Z,-1.70
2023-02-03T03:05:41.690Z,-1.59
2023-02-03T03:08:59.189Z,-1.69
2023-02-03T03:12:13.746Z,-1.70
2023-02-03T03:15:25.472Z,-1.71
2023-02-03T03:18:37.110Z,-1.65
2023-02-03T03:21:45.776Z,-1.57
2023-02-03T03:24:53.054Z,-1.59
2023-02-03T03:28:01.151Z,-1.58
2023-02-03T03:31:06.000Z,-1.57
2023-02-03T03:34:10.474Z,-1.52
2023-02-03T03:37:21.433Z,-1.50
2023-02-03T03:40:43.576Z,-1.49
2023-02-03T03:43:49.554Z,-1.41
2023-02-03T03:47:05.734Z,-1.43
2023-02-03T03:50:15.411Z,-1.47
2023-02-03T03:53:24.953Z,-1.43
2023-02-03T03:56:38.048Z,-1.36
2023-02-03T03:59:43.327Z,-1.41
2023-02-03T04:02:52.147Z,-1.36
2023-02-03T04:05:56.348Z,-1.23
2023-02-03T04:09:07.228Z,-1.16
2023-02-03T04:12:25.845Z,-1.04
2023-02-03T04:15:32.831Z,-0.95
2023-02-03T04:18:36.400Z,-0.93
2023-02-03T04:21:39.921Z,-0.94
2023-02-03T04:24:44.093Z,-0.88
2023-02-03T04:27:47.714Z,-0.81
2023-02-03T04:30:51.408Z,-0.91
2023-02-03T04:33:58.443Z,-0.86
2023-02-03T04:37:01.757Z,-0.89
2023-02-03T04:40:06.433Z,-0.83
2023-02-03T04:43:10.299Z,-0.75
2023-02-03T04:46:15.180Z,-0.77
2023-02-03T04:49:18.792Z,-0.71
2023-02-03T04:52:23.903Z,-0.71
2023-02-03T04:55:32.885Z,-0.76
2023-02-03T04:58:37.257Z,-0.72
2023-02-03T05:01:41.773Z,-0.67
2023-02-03T05:04:45.048Z,-0.71
2023-02-03T05:07:48.875Z,-0.68
2023-02-03T05:10:52.491Z,-0.69
2023-02-03T05:13:59.530Z,-0.75
2023-02-03T05:17:04.764Z,-0.75
2023-02-03T05:20:09.399Z,-0.64
2023-02-03T05:23:14.935Z,-0.56
2023-02-03T05:26:18.343Z,-0.57
2023-02-03T05:29:23.178Z,-0.62
2023-02-03T05:32:28.796Z,-0.58
2023-02-03T05:35:32.612Z,-0.57
2023-02-03T05:38:40.598Z,-0.55
2023-02-03T05:41:53.178Z,-0.52
2023-02-03T05:44:59.503Z,-0.49
2023-02-03T05:48:06.227Z,-0.41
2023-02-03T05:51:10.626Z,-0.41
2023-02-03T05:54:18.685Z,-0.48
2023-02-03T05:57:26.148Z,-0.41
2023-02-03T06:00:35.523Z,-0.58
2023-02-03T06:03:42.006Z,-0.64
2023-02-03T06:06:50.710Z,-0.74
2023-02-03T06:09:54.674Z,-0.83
2023-02-03T06:12:59.228Z,-0.84
2023-02-03T06:16:07.325Z,-0.78
2023-02-03T06:19:16.301Z,-0.62
2023-02-03T06:22:20.917Z,-0.56
2023-02-03T06:25:37.126Z,-0.54
2023-02-03T06:28:44.183Z,-0.44
2023-02-03T06:31:50.371Z,-0.44
2023-02-03T06:34:55.871Z,-0.44
2023-02-03T06:38:00.389Z,-0.49
2023-02-03T06:41:04.131Z,-0.48
2023-02-03T06:44:08.584Z,-0.50
2023-02-03T06:47:12.358Z,-0.49
2023-02-03T06:50:16.909Z,-0.61
2023-02-03T06:53:20.903Z,-0.73
2023-02-03T06:56:29.064Z,-0.80
2023-02-03T06:59:36.494Z,-0.75
2023-02-03T07:02:42.053Z,-0.69
2023-02-03T07:05:45.579Z,-0.55
2023-02-03T07:08:53.421Z,-0.50
2023-02-03T07:11:58.567Z,-0.44
2023-02-03T07:15:08.220Z,-0.48
2023-02-03T07:18:11.889Z,-0.39
2023-02-03T07:21:19.855Z,-0.35
2023-02-03T07:24:26.806Z,-0.40
2023-02-03T07:27:34.471Z,-0.31
2023-02-03T07:30:38.084Z,-0.37
2023-02-03T07:33:45.768Z,-0.27
2023-02-03T07:37:00.312Z,-0.49
2023-02-03T07:40:03.959Z,-0.57
2023-02-03T07:43:13.394Z,-0.61
2023-02-03T07:46:24.876Z,-0.55
2023-02-03T07:49:29.876Z,-0.89
2023-02-03T07:52:37.266Z,-0.84
2023-02-03T07:55:41.600Z,-1.01
2023-02-03T07:58:48.647Z,-1.04
2023-02-03T08:01:57.103Z,-1.00
2023-02-03T08:05:06.264Z,-1.09
2023-02-03T08:08:17.263Z,-0.95
2023-02-03T08:11:21.007Z,-0.86
2023-02-03T08:14:25.383Z,-0.96
2023-02-03T08:17:29.965Z,-0.90
2023-02-03T08:20:33.654Z,-0.78
2023-02-03T08:23:39.642Z,-1.06
2023-02-03T08:26:48.808Z,-1.07
2023-02-03T08:29:55.666Z,-0.99
2023-02-03T08:33:06.592Z,-0.90
2023-02-03T08:39:36.107Z,-0.86
2023-02-03T08:42:45.650Z,-1.14
2023-02-03T08:45:52.667Z,-1.19
2023-02-03T08:49:01.540Z,-1.06
2023-02-03T08:52:05.070Z,-0.83
2023-02-03T08:55:18.950Z,-0.68
2023-02-03T08:58:25.512Z,-0.81
2023-02-03T09:01:32.083Z,-0.99
2023-02-03T09:04:41.144Z,-1.05
2023-02-03T09:07:45.459Z,-0.95
2023-02-03T09:10:52.729Z,-0.94
2023-02-03T09:14:00.937Z,-0.74
2023-02-03T09:17:11.521Z,-0.85
2023-02-03T09:20:16.467Z,-0.85
2023-02-03T09:23:20.013Z,-0.80
2023-02-03T09:26:23.572Z,-0.76
2023-02-03T09:29:30.158Z,-0.60
2023-02-03T09:32:36.404Z,-0.84
2023-02-03T09:35:41.039Z,-0.67
2023-02-03T09:38:48.900Z,-0.60
2023-02-03T09:42:42.439Z,-0.55
2023-02-03T09:45:49.712Z,-0.46
2023-02-03T09:49:10.580Z,-0.38
2023-02-03T09:52:45.791Z,-0.42
2023-02-03T09:55:55.299Z,-0.59
2023-02-03T09:59:13.951Z,-0.38
2023-02-03T10:02:26.535Z,-0.49
2023-02-03T10:06:06.114Z,-0.74
2023-02-03T10:09:34.297Z,-0.59
2023-02-03T10:12:38.168Z,-0.88
2023-02-03T10:16:06.046Z,-0.50
2023-02-03T10:19:18.552Z,-0.51
2023-02-03T10:22:30.960Z,-0.79
2023-02-03T10:25:57.524Z,-0.56
2023-02-03T10:29:22.356Z,-0.69
2023-02-03T10:32:32.302Z,-0.87
2023-02-03T10:36:06.108Z,-0.87
2023-02-03T10:39:20.947Z,-0.71
2023-02-03T10:42:25.350Z,-0.34
2023-02-03T10:45:32.576Z,-0.28
2023-02-03T10:48:37.888Z,-0.65
2023-02-03T10:51:54.756Z,-0.43
2023-02-03T10:54:59.948Z,-0.20
2023-02-03T10:58:25.693Z,-0.18
2023-02-03T11:01:42.420Z,-0.21
2023-02-03T11:04:45.763Z,-0.59
2023-02-03T11:07:49.467Z,-0.71
2023-02-03T11:11:03.263Z,-1.08
2023-02-03T11:14:06.909Z,-0.80
2023-02-03T11:17:20.420Z,-0.91
2023-02-03T11:20:29.474Z,-1.00
2023-02-03T11:23:33.698Z,-0.60
2023-02-03T11:26:42.532Z,-0.71
2023-02-03T11:29:50.074Z,-0.59
2023-02-03T11:32:56.128Z,-0.55
2023-02-03T11:36:00.694Z,-0.40
2023-02-03T11:39:24.284Z,-0.20
2023-02-03T11:42:32.119Z,0.00
2023-02-03T11:45:49.389Z,0.12
2023-02-03T11:49:35.811Z,-0.06
2023-02-03T11:53:02.520Z,0.28
2023-02-03T11:56:27.782Z,-0.12
2023-02-03T11:59:53.694Z,-0.22
2023-02-03T12:03:13.271Z,-0.26
2023-02-03T12:06:25.286Z,-0.40
2023-02-03T12:09:55.441Z,-0.17
2023-02-03T12:13:08.524Z,-0.05
2023-02-03T12:16:51.688Z,-0.55
2023-02-03T12:20:18.974Z,-0.26
2023-02-03T12:23:23.659Z,-0.48
2023-02-03T12:26:35.420Z,-0.29
2023-02-03T12:29:45.196Z,-0.15
2023-02-03T12:33:18.833Z,-0.03
2023-02-03T12:36:29.340Z,0.15
2023-02-03T12:39:40.310Z,-0.15
2023-02-03T12:43:13.023Z,-0.13
2023-02-03T12:46:41.277Z,-0.02
2023-02-03T12:49:52.857Z,-0.07
2023-02-03T12:53:01.188Z,-0.06
2023-02-03T12:56:18.941Z,-0.22
2023-02-03T12:59:26.066Z,0.03
2023-02-03T13:02:36.825Z,-0.11
2023-02-03T13:06:12.754Z,0.16
2023-02-03T13:09:41.419Z,0.14
2023-02-03T13:12:57.317Z,-0.01
2023-02-03T13:16:01.336Z,0.11
2023-02-03T13:22:28.262Z,0.13
2023-02-03T13:25:46.396Z,0.07
2023-02-03T13:29:01.909Z,-0.28
2023-02-03T13:32:27.502Z,-0.42
2023-02-03T13:35:45.886Z,-0.16
2023-02-03T13:39:22.856Z,-0.20
2023-02-03T13:42:27.858Z,-0.27
2023-02-03T13:45:41.621Z,-0.24
2023-02-03T13:48:45.868Z,-0.07
2023-02-03T13:51:50.803Z,-0.31
2023-02-03T13:54:53.925Z,-0.07
2023-02-03T13:57:57.376Z,-0.08
2023-02-03T14:01:02.693Z,0.02
2023-02-03T14:04:09.447Z,0.15
2023-02-03T14:07:38.668Z,0.04
2023-02-03T14:10:45.629Z,0.08
2023-02-03T14:13:52.747Z,0.08
2023-02-03T14:16:56.531Z,0.15
2023-02-03T14:20:00.389Z,0.23
2023-02-03T14:23:09.064Z,0.28
2023-02-03T14:26:20.284Z,0.25
2023-02-03T14:29:32.878Z,0.04
2023-02-03T14:33:00.760Z,0.16
2023-02-03T14:36:26.720Z,0.00
2023-02-03T14:39:58.583Z,0.21
2023-02-03T14:43:44.554Z,0.02
2023-02-03T14:47:02.530Z,0.13
2023-02-03T14:50:07.270Z,0.13
2023-02-03T14:53:28.479Z,-0.29
2023-02-03T14:57:12.438Z,-0.39
2023-02-03T15:00:26.843Z,-0.18
2023-02-03T15:03:31.456Z,-0.29
2023-02-03T15:06:48.582Z,-0.60
